Time;durP1;ratioP1;P1;durP2;ratioP2;P2;SDS_P1;SDS_P2;PMS_P1;PMS_P2;Temp;Humidity;BMP_temperature;BMP_pressure;BME280_temperature;BME280_humidity;BME280_pressure;Samples;Min_cycle;Max_cycle;Signal;HPM_P1;HPM_P2
2021/05/28 00:00:39;;;;;;;17.30;7.65;;;11.80;99.90;;;;;;5008437;28;20050;-82
2021/05/28 00:03:06;;;;;;;14.15;8.52;;;11.90;99.90;;;;;;5010310;28;20119;-82
2021/05/28 00:05:33;;;;;;;12.25;7.13;;;11.90;99.90;;;;;;5007832;28;20068;-81
2021/05/28 00:08:02;;;;;;;12.30;7.95;;;12.00;99.90;;;;;;5008541;28;20073;-82
2021/05/28 00:10:29;;;;;;;14.88;7.57;;;11.90;99.90;;;;;;5007664;28;20112;-83
2021/05/28 00:12:57;;;;;;;12.13;7.45;;;12.10;99.90;;;;;;5010011;28;20407;-83
2021/05/28 00:15:24;;;;;;;16.15;7.28;;;12.20;99.90;;;;;;5009537;28;20069;-82
2021/05/28 00:17:52;;;;;;;14.02;7.90;;;12.10;99.90;;;;;;5011084;28;20088;-82
2021/05/28 00:20:19;;;;;;;12.48;7.45;;;12.10;99.90;;;;;;5027738;28;20404;-82
2021/05/28 00:22:48;;;;;;;15.43;7.60;;;12.00;99.90;;;;;;5011850;28;20046;-82
2021/05/28 00:25:15;;;;;;;12.82;7.53;;;12.00;99.90;;;;;;5010902;28;20478;-82
2021/05/28 00:27:45;;;;;;;15.32;8.10;;;12.00;99.90;;;;;;5014816;28;20104;-82
2021/05/28 00:30:12;;;;;;;14.43;8.73;;;12.10;99.90;;;;;;5011650;28;20081;-83
2021/05/28 00:32:40;;;;;;;14.57;8.23;;;12.10;99.90;;;;;;5004342;28;20054;-83
2021/05/28 00:35:08;;;;;;;17.45;9.02;;;12.10;99.90;;;;;;5014057;28;20085;-82
2021/05/28 00:37:35;;;;;;;16.88;9.30;;;12.20;99.90;;;;;;5016244;28;20116;-83
2021/05/28 00:40:03;;;;;;;15.80;8.95;;;12.10;99.90;;;;;;5015086;28;20136;-83
2021/05/28 00:42:30;;;;;;;18.92;9.20;;;12.20;99.90;;;;;;5011949;28;20398;-83
2021/05/28 00:44:59;;;;;;;15.40;8.35;;;12.20;99.90;;;;;;5012686;28;20046;-84
2021/05/28 00:47:26;;;;;;;16.20;8.73;;;12.10;99.90;;;;;;5010591;28;20072;-83
2021/05/28 00:49:53;;;;;;;15.48;8.98;;;12.20;99.90;;;;;;5012109;28;20060;-81
2021/05/28 00:52:20;;;;;;;16.42;8.25;;;12.30;99.90;;;;;;5017754;28;20488;-83
2021/05/28 00:54:47;;;;;;;13.23;8.80;;;12.00;99.90;;;;;;5012278;28;20494;-84
2021/05/28 00:57:15;;;;;;;18.98;9.07;;;12.10;99.90;;;;;;5014382;28;20061;-83
2021/05/28 00:59:44;;;;;;;;;;;12.30;99.90;;;;;;5015418;28;20083;-82
2021/05/28 01:02:12;;;;;;;17.10;8.02;;;12.40;99.90;;;;;;5025922;28;19997;-90
2021/05/28 01:04:40;;;;;;;15.88;9.23;;;12.30;99.90;;;;;;5017694;28;20054;-90
2021/05/28 01:07:07;;;;;;;16.38;9.25;;;12.40;99.90;;;;;;5012740;28;20129;-84
2021/05/28 01:09:34;;;;;;;14.18;8.05;;;12.40;99.90;;;;;;5009132;28;20120;-84
2021/05/28 01:12:01;;;;;;;13.52;8.20;;;12.40;99.90;;;;;;5015712;28;20046;-83
2021/05/28 01:14:28;;;;;;;16.55;8.35;;;12.20;99.90;;;;;;5008950;28;20478;-82
2021/05/28 01:16:55;;;;;;;19.15;8.35;;;12.10;99.90;;;;;;5010366;28;20137;-83
2021/05/28 01:19:25;;;;;;;15.00;8.60;;;12.00;99.90;;;;;;5012920;28;20057;-82
2021/05/28 01:21:55;;;;;;;14.65;8.57;;;12.10;99.90;;;;;;5008685;28;20050;-81
2021/05/28 01:24:22;;;;;;;16.95;8.30;;;12.20;99.90;;;;;;5013378;28;20481;-83
2021/05/28 01:26:49;;;;;;;14.95;8.18;;;12.20;99.90;;;;;;5010826;28;20111;-83
2021/05/28 01:29:20;;;;;;;21.17;8.68;;;12.10;99.90;;;;;;5028088;28;20046;-82
2021/05/28 01:31:48;;;;;;;13.95;7.78;;;12.10;99.90;;;;;;5009565;28;20073;-83
2021/05/28 01:34:15;;;;;;;18.25;7.78;;;12.10;99.90;;;;;;5009667;28;20050;-82
2021/05/28 01:36:44;;;;;;;16.90;7.75;;;12.10;99.90;;;;;;5007701;28;20052;-83
2021/05/28 01:39:11;;;;;;;16.75;8.30;;;12.10;99.90;;;;;;5009545;28;20072;-81
2021/05/28 01:41:38;;;;;;;16.55;7.78;;;12.20;99.90;;;;;;5010222;28;20096;-83
2021/05/28 01:44:10;;;;;;;16.98;8.35;;;12.10;99.90;;;;;;5011386;28;20053;-82
2021/05/28 01:46:38;;;;;;;16.02;7.80;;;12.10;99.90;;;;;;5024174;28;20401;-79
2021/05/28 01:49:05;;;;;;;17.90;8.90;;;12.20;99.90;;;;;;5009990;28;20160;-81
2021/05/28 01:51:33;;;;;;;16.98;8.00;;;12.20;99.90;;;;;;5008186;28;20049;-82
2021/05/28 01:54:00;;;;;;;19.98;8.32;;;12.20;99.90;;;;;;5010835;28;20161;-82
2021/05/28 01:56:28;;;;;;;12.00;7.13;;;12.20;99.90;;;;;;5007884;28;20517;-82
2021/05/28 01:58:55;;;;;;;13.90;7.82;;;12.30;99.90;;;;;;5005629;28;20441;-81
2021/05/28 02:01:22;;;;;;;15.52;7.20;;;12.20;99.90;;;;;;5025474;28;20100;-82
2021/05/28 02:03:49;;;;;;;14.52;7.82;;;12.30;99.90;;;;;;5009905;28;20100;-82
2021/05/28 02:06:17;;;;;;;13.73;8.20;;;12.20;99.90;;;;;;5003154;28;20074;-80
2021/05/28 02:08:44;;;;;;;17.00;8.05;;;12.30;99.90;;;;;;5010077;28;20058;-82
2021/05/28 02:11:12;;;;;;;16.08;7.43;;;12.30;99.90;;;;;;5016925;28;20081;-84
2021/05/28 02:13:39;;;;;;;14.85;7.88;;;12.30;99.90;;;;;;5015321;28;20053;-85
2021/05/28 02:16:06;;;;;;;17.48;7.82;;;12.20;99.90;;;;;;5013975;28;20105;-86
2021/05/28 02:18:33;;;;;;;16.75;8.32;;;12.10;99.90;;;;;;5017613;28;20140;-84
2021/05/28 02:21:02;;;;;;;17.85;8.23;;;12.10;99.90;;;;;;5011159;28;20415;-85
2021/05/28 02:23:29;;;;;;;16.92;8.52;;;12.10;99.90;;;;;;5013048;28;20133;-85
2021/05/28 02:25:57;;;;;;;20.00;8.10;;;12.10;99.90;;;;;;5014641;28;20477;-80
2021/05/28 02:28:24;;;;;;;12.13;7.85;;;12.00;99.90;;;;;;5043696;28;20081;-80
2021/05/28 02:30:51;;;;;;;17.20;7.88;;;12.10;99.90;;;;;;5009143;28;20045;-81
2021/05/28 02:33:17;;;;;;;17.80;8.00;;;12.10;99.90;;;;;;5016718;28;20382;-79
2021/05/28 02:35:44;;;;;;;14.73;8.25;;;12.00;99.90;;;;;;5012589;28;20104;-78
2021/05/28 02:38:11;;;;;;;13.60;7.93;;;12.10;99.90;;;;;;5008203;28;20058;-82
2021/05/28 02:40:38;;;;;;;17.58;7.97;;;12.20;99.90;;;;;;5014710;28;20054;-82
2021/05/28 02:43:05;;;;;;;14.57;8.48;;;12.10;99.90;;;;;;5012086;28;20084;-82
2021/05/28 02:45:33;;;;;;;20.45;8.02;;;12.20;99.90;;;;;;5012498;28;20205;-81
2021/05/28 02:48:00;;;;;;;17.55;8.20;;;12.20;99.90;;;;;;5017262;28;20075;-81
2021/05/28 02:50:32;;;;;;;15.90;8.30;;;12.20;99.90;;;;;;5010988;28;20259;-82
2021/05/28 02:53:02;;;;;;;15.25;7.78;;;12.10;99.90;;;;;;5012295;28;20125;-82
2021/05/28 02:55:32;;;;;;;18.80;8.05;;;11.90;99.90;;;;;;5012308;28;20181;-81
2021/05/28 02:57:59;;;;;;;15.77;8.75;;;11.80;99.90;;;;;;5012380;28;20542;-82
2021/05/28 03:00:25;;;;;;;15.98;8.43;;;11.80;99.90;;;;;;5013120;28;20065;-80
2021/05/28 03:02:52;;;;;;;18.27;8.55;;;11.80;99.90;;;;;;5012185;28;20046;-80
2021/05/28 03:05:19;;;;;;;20.10;8.48;;;11.90;99.90;;;;;;5013244;28;20077;-79
2021/05/28 03:07:46;;;;;;;14.88;7.80;;;12.00;99.90;;;;;;5009634;28;20547;-80
2021/05/28 03:10:13;;;;;;;17.90;7.47;;;12.00;99.90;;;;;;5011118;28;20049;-79
2021/05/28 03:12:41;;;;;;;18.83;8.23;;;12.10;99.90;;;;;;5014747;28;20049;-81
2021/05/28 03:15:10;;;;;;;21.52;9.07;;;12.00;99.90;;;;;;5013490;28;20409;-83
2021/05/28 03:17:41;;;;;;;15.10;8.27;;;11.90;99.90;;;;;;5011962;28;20077;-82
2021/05/28 03:20:17;;;;;;;14.98;8.40;;;11.80;99.90;;;;;;5009506;28;20062;-79
2021/05/28 03:22:45;;;;;;;14.95;8.52;;;11.80;99.90;;;;;;5011913;28;20137;-81
2021/05/28 03:25:12;;;;;;;16.48;8.32;;;11.80;99.90;;;;;;5013109;28;20049;-85
2021/05/28 03:27:40;;;;;;;23.25;9.40;;;11.90;99.90;;;;;;5012987;28;20057;-85
2021/05/28 03:30:09;;;;;;;14.77;8.73;;;11.70;99.90;;;;;;5012743;28;20080;-84
2021/05/28 03:32:36;;;;;;;18.15;8.00;;;11.80;99.90;;;;;;5012862;28;20108;-84
2021/05/28 03:35:05;;;;;;;14.85;8.13;;;11.70;99.90;;;;;;5012297;28;20145;-85
2021/05/28 03:37:34;;;;;;;18.45;8.63;;;11.70;99.90;;;;;;5010781;28;20081;-84
2021/05/28 03:40:01;;;;;;;16.38;9.13;;;11.70;99.90;;;;;;5015853;28;20045;-85
2021/05/28 03:42:28;;;;;;;17.92;8.73;;;11.70;99.90;;;;;;5011038;28;20046;-85
2021/05/28 03:44:56;;;;;;;15.82;9.07;;;11.60;99.90;;;;;;5012195;28;20419;-86
2021/05/28 03:47:23;;;;;;;15.65;8.25;;;11.60;99.90;;;;;;5015382;28;20050;-85
2021/05/28 03:49:50;;;;;;;20.33;9.43;;;11.40;99.90;;;;;;5013732;28;20076;-85
2021/05/28 03:52:17;;;;;;;17.80;8.98;;;11.40;99.90;;;;;;4998473;28;20064;-85
2021/05/28 03:54:46;;;;;;;13.45;8.35;;;11.30;99.90;;;;;;5011762;28;20558;-85
2021/05/28 03:57:13;;;;;;;16.48;8.35;;;11.20;99.90;;;;;;4994226;28;20108;-85
2021/05/28 03:59:40;;;;;;;20.55;9.18;;;11.30;99.90;;;;;;5012856;28;20482;-80
2021/05/28 04:02:07;;;;;;;24.63;8.98;;;11.20;99.90;;;;;;5022278;28;20076;-81
2021/05/28 04:04:34;;;;;;;20.05;9.95;;;11.40;99.90;;;;;;5010023;28;20104;-82
2021/05/28 04:07:05;;;;;;;15.38;9.38;;;11.30;99.90;;;;;;4993541;28;21472;-82
2021/05/28 04:09:34;;;;;;;17.77;9.65;;;11.30;99.90;;;;;;5010454;28;20053;-82
2021/05/28 04:12:03;;;;;;;19.05;9.60;;;11.30;99.90;;;;;;5013704;28;20045;-82
2021/05/28 04:14:30;;;;;;;18.23;9.15;;;11.40;99.90;;;;;;5007934;28;20050;-82
2021/05/28 04:16:57;;;;;;;19.50;9.45;;;11.50;99.90;;;;;;5010630;28;20077;-81
2021/05/28 04:19:24;;;;;;;18.10;9.45;;;11.50;99.90;;;;;;5010893;28;20051;-82
2021/05/28 04:21:51;;;;;;;19.25;9.32;;;11.40;99.90;;;;;;5004482;28;20046;-82
2021/05/28 04:24:18;;;;;;;16.20;9.05;;;11.30;99.90;;;;;;5012327;28;20046;-82
2021/05/28 04:26:44;;;;;;;23.85;9.77;;;11.40;99.90;;;;;;5009655;28;20049;-80
2021/05/28 04:29:11;;;;;;;17.05;9.60;;;11.50;99.90;;;;;;5009387;28;20355;-80
2021/05/28 04:31:38;;;;;;;16.50;9.57;;;11.60;99.90;;;;;;5010408;28;20046;-81
2021/05/28 04:34:05;;;;;;;20.67;9.77;;;11.60;99.90;;;;;;5008864;28;20457;-80
2021/05/28 04:36:32;;;;;;;20.30;9.32;;;11.60;99.90;;;;;;4999308;28;20451;-81
2021/05/28 04:38:59;;;;;;;16.13;10.23;;;11.60;99.90;;;;;;5009585;28;20050;-86
2021/05/28 04:41:26;;;;;;;22.83;10.07;;;11.50;99.90;;;;;;5013037;28;20050;-83
2021/05/28 04:43:52;;;;;;;15.50;9.43;;;11.50;99.90;;;;;;5015103;28;20053;-86
2021/05/28 04:46:19;;;;;;;16.15;9.48;;;11.60;99.90;;;;;;5013492;28;20058;-86
2021/05/28 04:48:46;;;;;;;18.33;9.70;;;11.70;99.90;;;;;;5012644;28;20092;-84
2021/05/28 04:51:15;;;;;;;16.77;9.98;;;11.60;99.90;;;;;;5009841;28;20080;-85
2021/05/28 04:53:41;;;;;;;19.05;9.75;;;11.60;99.90;;;;;;5012618;28;20557;-85
2021/05/28 04:56:08;;;;;;;19.20;11.02;;;11.60;99.90;;;;;;5010842;28;20110;-84
2021/05/28 04:58:35;;;;;;;20.90;10.52;;;11.60;99.90;;;;;;5010847;28;20118;-86
2021/05/28 05:01:10;;;;;;;18.42;9.82;;;11.70;99.90;;;;;;5013616;28;20058;-86
2021/05/28 05:03:37;;;;;;;23.25;10.32;;;11.80;99.90;;;;;;5010035;28;20084;-87
2021/05/28 05:06:05;;;;;;;26.40;10.82;;;11.70;99.90;;;;;;5010330;28;20085;-86
2021/05/28 05:08:32;;;;;;;18.90;9.77;;;11.70;99.90;;;;;;5012991;28;20080;-85
2021/05/28 05:10:59;;;;;;;17.33;9.68;;;11.80;99.90;;;;;;5011813;28;20061;-85
2021/05/28 05:13:27;;;;;;;18.38;10.85;;;11.80;99.90;;;;;;5015552;28;20216;-84
2021/05/28 05:15:54;;;;;;;22.20;11.57;;;11.90;99.90;;;;;;5009969;28;20080;-85
2021/05/28 05:18:23;;;;;;;19.58;10.32;;;12.00;99.90;;;;;;5014001;28;20049;-86
2021/05/28 05:20:50;;;;;;;19.58;10.25;;;12.50;99.90;;;;;;5011388;28;20049;-85
2021/05/28 05:23:18;;;;;;;19.40;9.98;;;12.30;99.90;;;;;;5012092;28;20547;-84
2021/05/28 05:25:45;;;;;;;18.90;10.95;;;12.20;99.90;;;;;;5011792;28;20076;-84
2021/05/28 05:28:13;;;;;;;19.98;10.75;;;12.10;99.90;;;;;;5017764;28;20050;-86
2021/05/28 05:30:40;;;;;;;23.65;10.65;;;12.10;99.90;;;;;;5015977;28;20046;-85
2021/05/28 05:33:07;;;;;;;22.63;10.73;;;12.10;99.90;;;;;;5028058;28;20054;-87
2021/05/28 05:35:34;;;;;;;19.42;10.80;;;12.20;99.90;;;;;;5010668;28;20053;-87
2021/05/28 05:38:01;;;;;;;20.20;11.20;;;12.40;99.90;;;;;;5010351;28;20472;-87
2021/05/28 05:40:28;;;;;;;18.35;10.98;;;12.70;99.90;;;;;;5009991;28;20084;-88
2021/05/28 05:42:55;;;;;;;19.75;11.20;;;12.90;99.90;;;;;;5010251;28;20543;-87
2021/05/28 05:45:22;;;;;;;18.02;10.90;;;12.50;99.90;;;;;;5006347;28;20046;-87
2021/05/28 05:47:50;;;;;;;25.35;10.75;;;12.60;99.90;;;;;;5010265;28;20050;-86
2021/05/28 05:50:17;;;;;;;19.58;10.98;;;12.70;99.90;;;;;;5009373;28;20076;-86
2021/05/28 05:52:44;;;;;;;20.65;10.38;;;12.70;99.90;;;;;;5009914;28;20050;-85
2021/05/28 05:55:12;;;;;;;23.42;10.65;;;12.70;99.90;;;;;;5014607;28;20062;-87
2021/05/28 05:57:41;;;;;;;23.27;10.25;;;12.70;99.90;;;;;;5012416;28;20062;-88
2021/05/28 06:00:09;;;;;;;21.73;10.73;;;13.00;99.90;;;;;;5025964;28;20141;-85
2021/05/28 06:02:39;;;;;;;16.80;10.38;;;12.90;99.90;;;;;;5014863;28;20115;-86
2021/05/28 06:05:07;;;;;;;21.05;11.15;;;13.60;99.90;;;;;;5013874;28;20053;-87
2021/05/28 06:07:35;;;;;;;20.33;9.98;;;13.20;99.90;;;;;;5009805;28;20105;-86
2021/05/28 06:10:03;;;;;;;19.67;10.05;;;13.70;99.90;;;;;;5012249;28;20054;-86
2021/05/28 06:12:32;;;;;;;;;;;14.20;99.90;;;;;;5013724;28;20050;-84
2021/05/28 06:14:59;;;;;;;25.48;10.68;;;13.90;99.20;;;;;;5010086;28;19980;-86
2021/05/28 06:17:26;;;;;;;21.88;10.57;;;13.30;99.90;;;;;;5009123;28;20065;-87
2021/05/28 06:19:53;;;;;;;23.48;10.70;;;13.30;99.90;;;;;;5009885;28;20108;-87
2021/05/28 06:22:27;;;;;;;17.77;9.93;;;13.10;99.90;;;;;;5014252;28;20058;-87
2021/05/28 06:24:55;;;;;;;19.30;9.85;;;13.10;99.90;;;;;;5009371;28;20156;-86
2021/05/28 06:27:22;;;;;;;19.27;10.27;;;13.10;99.90;;;;;;5011089;28;20046;-86
2021/05/28 06:29:48;;;;;;;22.52;10.07;;;13.10;99.90;;;;;;5010780;28;20124;-87
2021/05/28 06:32:15;;;;;;;19.35;10.70;;;13.10;99.90;;;;;;5008797;28;20049;-81
2021/05/28 06:34:45;;;;;;;17.05;9.18;;;13.10;99.90;;;;;;5008033;28;20121;-81
2021/05/28 06:37:12;;;;;;;18.52;10.38;;;13.50;99.90;;;;;;5006898;28;20386;-81
2021/05/28 06:39:39;;;;;;;19.48;9.80;;;13.40;99.90;;;;;;5009915;28;20049;-81
2021/05/28 06:42:06;;;;;;;19.95;9.38;;;13.70;99.90;;;;;;5008099;28;20132;-87
2021/05/28 06:44:33;;;;;;;20.27;9.50;;;14.10;98.40;;;;;;4992748;28;20062;-86
2021/05/28 06:46:59;;;;;;;14.43;9.40;;;13.60;99.20;;;;;;5012667;28;20038;-87
2021/05/28 06:49:26;;;;;;;16.90;9.13;;;13.60;98.70;;;;;;5019667;28;20057;-86
2021/05/28 06:51:54;;;;;;;17.17;9.23;;;13.40;98.70;;;;;;5008198;28;20117;-88
2021/05/28 06:54:21;;;;;;;17.75;10.25;;;13.40;98.60;;;;;;5011383;28;20056;-88
2021/05/28 06:56:48;;;;;;;18.98;10.23;;;13.90;97.60;;;;;;5012167;28;20136;-88
2021/05/28 06:59:15;;;;;;;16.50;9.52;;;14.00;97.60;;;;;;5013290;28;20057;-86
2021/05/28 07:01:44;;;;;;;20.73;9.20;;;14.10;97.80;;;;;;5014070;28;20481;-87
2021/05/28 07:04:11;;;;;;;17.38;8.18;;;14.10;97.30;;;;;;5014190;28;20058;-86
2021/05/28 07:06:40;;;;;;;18.52;8.65;;;14.10;96.10;;;;;;5024187;28;20133;-87
2021/05/28 07:09:08;;;;;;;21.80;9.65;;;13.90;96.40;;;;;;5013849;28;20081;-88
2021/05/28 07:11:36;;;;;;;15.52;9.63;;;13.90;96.70;;;;;;5014449;28;20049;-87
2021/05/28 07:14:03;;;;;;;17.90;8.50;;;14.10;97.30;;;;;;5016953;28;20092;-85
2021/05/28 07:16:31;;;;;;;16.13;8.73;;;14.00;96.70;;;;;;5014357;28;20061;-85
2021/05/28 07:18:59;;;;;;;15.30;8.30;;;14.30;97.20;;;;;;5016814;28;20058;-86
2021/05/28 07:21:27;;;;;;;16.65;8.50;;;14.30;95.40;;;;;;5037595;28;20073;-86
2021/05/28 07:23:54;;;;;;;12.32;7.65;;;14.00;96.50;;;;;;5016713;28;20507;-85
2021/05/28 07:26:21;;;;;;;13.32;8.43;;;14.10;96.30;;;;;;5016014;28;20202;-87
2021/05/28 07:28:48;;;;;;;13.38;8.73;;;14.40;96.30;;;;;;5023982;28;20109;-85
2021/05/28 07:31:16;;;;;;;13.10;8.05;;;14.20;95.30;;;;;;5014386;28;20077;-86
2021/05/28 07:33:43;;;;;;;13.68;7.20;;;14.00;96.30;;;;;;5011182;28;20079;-80
2021/05/28 07:36:09;;;;;;;12.15;7.25;;;14.10;95.40;;;;;;5005957;28;20081;-81
2021/05/28 07:38:36;;;;;;;12.63;7.47;;;14.20;95.60;;;;;;5010902;28;20100;-81
2021/05/28 07:41:05;;;;;;;16.52;7.65;;;14.50;94.80;;;;;;5017359;28;20096;-81
2021/05/28 07:43:34;;;;;;;14.48;7.53;;;14.60;95.10;;;;;;5011659;28;20081;-79
2021/05/28 07:46:01;;;;;;;9.23;6.93;;;14.60;95.00;;;;;;5009527;28;20050;-80
2021/05/28 07:48:28;;;;;;;15.93;7.72;;;14.50;94.70;;;;;;5011233;28;20057;-81
2021/05/28 07:50:58;;;;;;;14.65;7.72;;;14.20;95.10;;;;;;5016325;28;20050;-81
2021/05/28 07:53:28;;;;;;;13.15;7.55;;;14.20;95.00;;;;;;5010848;28;20174;-81
2021/05/28 07:55:59;;;;;;;10.55;6.68;;;14.50;95.60;;;;;;5011665;28;20088;-80
2021/05/28 07:58:29;;;;;;;9.63;6.00;;;14.90;94.70;;;;;;5009269;28;20137;-80
2021/05/28 08:00:56;;;;;;;12.88;6.05;;;15.10;92.50;;;;;;5015235;28;20077;-82
2021/05/28 08:03:23;;;;;;;13.50;6.38;;;15.00;91.90;;;;;;5011826;28;20050;-81
2021/05/28 08:05:54;;;;;;;13.02;6.18;;;15.20;91.90;;;;;;5017085;28;20065;-80
2021/05/28 08:08:26;;;;;;;13.98;6.85;;;15.10;91.80;;;;;;5025316;28;20081;-80
2021/05/28 08:10:54;;;;;;;9.85;6.18;;;14.80;92.50;;;;;;5009890;28;20445;-81
2021/05/28 08:13:21;;;;;;;7.32;5.18;;;14.50;92.80;;;;;;5012331;28;20042;-81
2021/05/28 08:15:49;;;;;;;14.90;5.72;;;14.60;93.10;;;;;;5012240;28;20069;-86
2021/05/28 08:18:16;;;;;;;8.45;5.40;;;14.70;92.30;;;;;;5012587;28;20077;-86
2021/05/28 08:20:43;;;;;;;10.57;5.63;;;14.90;91.80;;;;;;5012274;28;20058;-86
2021/05/28 08:23:10;;;;;;;13.85;5.10;;;15.00;90.90;;;;;;5011722;28;20141;-86
2021/05/28 08:25:38;;;;;;;10.00;5.15;;;15.30;90.70;;;;;;5013436;28;20409;-86
2021/05/28 08:28:05;;;;;;;8.70;5.22;;;15.30;89.20;;;;;;5013260;28;20061;-87
2021/05/28 08:30:32;;;;;;;11.98;5.13;;;15.20;88.80;;;;;;5013009;28;20157;-85
2021/05/28 08:32:59;;;;;;;5.68;4.65;;;15.10;87.30;;;;;;5011939;28;20050;-86
2021/05/28 08:35:27;;;;;;;8.63;4.97;;;15.00;89.10;;;;;;5012901;28;20101;-88
2021/05/28 08:37:54;;;;;;;9.63;4.68;;;15.40;88.20;;;;;;5012349;28;20401;-88
2021/05/28 08:40:23;;;;;;;7.53;5.05;;;15.60;86.70;;;;;;5013088;28;20528;-87
2021/05/28 08:42:52;;;;;;;5.82;3.63;;;15.70;85.40;;;;;;5013699;28;20069;-87
2021/05/28 08:45:18;;;;;;;7.93;4.57;;;15.70;83.50;;;;;;5011730;28;20061;-87
2021/05/28 08:47:45;;;;;;;12.02;5.35;;;15.60;82.30;;;;;;5013194;28;20135;-87
2021/05/28 08:50:13;;;;;;;8.15;4.57;;;15.80;82.60;;;;;;5014099;28;20511;-87
2021/05/28 08:52:40;;;;;;;8.27;4.88;;;15.80;81.90;;;;;;5008262;28;20050;-87
2021/05/28 08:55:09;;;;;;;9.13;4.53;;;15.70;81.80;;;;;;5013078;28;20053;-87
2021/05/28 08:57:36;;;;;;;8.25;4.85;;;15.30;83.70;;;;;;5013372;28;20100;-87
2021/05/28 09:00:04;;;;;;;9.05;5.57;;;15.40;83.30;;;;;;5012104;28;20042;-80
2021/05/28 09:02:38;;;;;;;14.82;6.70;;;15.40;83.70;;;;;;5008468;28;20065;-79
2021/05/28 09:05:08;;;;;;;6.70;4.70;;;15.60;83.30;;;;;;5008564;28;20167;-80
2021/05/28 09:07:37;;;;;;;8.25;4.53;;;15.60;82.40;;;;;;5006909;28;20054;-80
2021/05/28 09:10:28;;;;;;;7.60;5.13;;;15.40;83.70;;;;;;5007823;28;20165;-81
2021/05/28 09:13:06;;;;;;;12.52;5.65;;;15.40;83.00;;;;;;5008696;28;20054;-79
2021/05/28 09:15:36;;;;;;;6.20;4.20;;;15.50;83.80;;;;;;5009793;28;20066;-80
2021/05/28 09:18:03;;;;;;;5.50;4.10;;;15.50;82.10;;;;;;5009711;28;20466;-79
2021/05/28 09:20:30;;;;;;;9.30;4.40;;;15.30;82.70;;;;;;4999778;28;20054;-81
2021/05/28 09:23:18;;;;;;;9.52;5.53;;;15.30;81.70;;;;;;5009840;28;20493;-77
2021/05/28 09:26:03;;;;;;;5.72;3.55;;;15.30;81.70;;;;;;5006954;28;20195;-78
2021/05/28 09:29:01;;;;;;;6.88;3.90;;;15.50;80.60;;;;;;5007412;28;20054;-82
2021/05/28 09:31:32;;;;;;;7.45;4.38;;;15.40;81.40;;;;;;5003290;28;20093;-80
2021/05/28 09:33:59;;;;;;;11.77;5.15;;;15.50;81.90;;;;;;5009428;28;20077;-74
2021/05/28 09:36:35;;;;;;;6.43;4.20;;;15.60;80.80;;;;;;5004836;28;20077;-75
2021/05/28 09:39:16;;;;;;;9.52;5.93;;;15.60;80.90;;;;;;4987586;28;20058;-75
2021/05/28 09:41:49;;;;;;;8.73;4.63;;;15.70;80.40;;;;;;5004532;28;20077;-69
2021/05/28 09:44:23;;;;;;;7.50;3.95;;;15.80;79.60;;;;;;5005711;28;20136;-74
2021/05/28 09:47:07;;;;;;;6.40;3.42;;;15.70;79.30;;;;;;5002634;28;20446;-75
2021/05/28 09:49:40;;;;;;;6.72;3.50;;;15.80;79.20;;;;;;5007720;28;20057;-76
2021/05/28 09:52:22;;;;;;;7.95;3.20;;;15.90;78.50;;;;;;5009294;28;20162;-76
2021/05/28 09:55:15;;;;;;;5.90;2.90;;;16.10;76.40;;;;;;4990192;28;20686;-76
2021/05/28 09:57:45;;;;;;;4.45;2.88;;;16.30;74.40;;;;;;5001814;28;20058;-77
2021/05/28 10:00:31;;;;;;;7.10;3.22;;;16.20;74.30;;;;;;5001866;28;20061;-76
2021/05/28 10:03:29;;;;;;;7.50;3.75;;;16.50;72.80;;;;;;5022579;28;20049;-75
2021/05/28 10:05:58;;;;;;;6.95;3.03;;;16.60;72.30;;;;;;4995436;28;20056;-75
2021/05/28 10:08:27;;;;;;;7.57;3.40;;;16.70;73.60;;;;;;5027423;28;21387;-77
2021/05/28 10:10:59;;;;;;;6.00;3.22;;;16.80;72.70;;;;;;5003483;28;20088;-78
2021/05/28 10:13:28;;;;;;;4.53;2.47;;;16.60;72.60;;;;;;5006194;28;20819;-81
2021/05/28 10:15:57;;;;;;;4.63;2.58;;;16.50;71.80;;;;;;5002774;28;20497;-82
2021/05/28 10:18:25;;;;;;;4.43;2.40;;;16.50;71.50;;;;;;5007367;28;20427;-81
2021/05/28 10:20:53;;;;;;;4.18;2.47;;;16.40;70.50;;;;;;5001837;28;20711;-82
2021/05/28 10:23:25;;;;;;;6.63;2.90;;;16.30;70.80;;;;;;5004500;28;20100;-81
2021/05/28 10:25:56;;;;;;;4.22;2.60;;;16.30;71.60;;;;;;5033137;28;20042;-83
2021/05/28 10:28:31;;;;;;;4.68;2.85;;;16.40;72.10;;;;;;5003728;28;20101;-83
2021/05/28 10:30:58;;;;;;;4.85;2.72;;;16.20;72.00;;;;;;5004134;28;20096;-81
2021/05/28 10:33:27;;;;;;;10.13;3.08;;;16.50;71.90;;;;;;5008900;28;20061;-83
2021/05/28 10:35:57;;;;;;;4.15;2.55;;;16.80;70.00;;;;;;5008194;28;20129;-77
2021/05/28 10:38:29;;;;;;;5.20;2.42;;;16.90;68.70;;;;;;5004579;28;20165;-75
2021/05/28 10:40:59;;;;;;;5.35;2.42;;;17.30;67.70;;;;;;5004279;28;20759;-75
2021/05/28 10:43:28;;;;;;;5.88;2.63;;;17.40;66.30;;;;;;5026412;28;20062;-75
2021/05/28 10:46:05;;;;;;;2.72;1.90;;;17.50;65.60;;;;;;5006604;28;20053;-74
2021/05/28 10:48:38;;;;;;;3.58;2.17;;;17.70;65.80;;;;;;5004313;28;19929;-74
2021/05/28 10:51:16;;;;;;;7.13;2.63;;;17.30;63.70;;;;;;5026769;28;20074;-74
2021/05/28 10:53:52;;;;;;;5.57;2.00;;;17.10;65.40;;;;;;5005421;28;20121;-73
2021/05/28 10:56:26;;;;;;;5.68;2.65;;;16.90;64.90;;;;;;5027155;28;20077;-74
2021/05/28 10:58:57;;;;;;;6.45;2.25;;;16.80;65.30;;;;;;5004529;28;20132;-73
2021/05/28 11:01:42;;;;;;;5.82;3.13;;;16.90;66.90;;;;;;5023448;28;20081;-73
2021/05/28 11:04:17;;;;;;;4.75;2.30;;;16.90;66.00;;;;;;5004825;28;20081;-74
2021/05/28 11:09:45;;;;;;;3.03;1.95;;;17.10;64.10;;;;;;5006454;28;20046;-74
2021/05/28 11:12:14;;;;;;;3.83;1.83;;;17.00;64.20;;;;;;5004082;28;20124;-75
2021/05/28 11:15:04;;;;;;;3.28;1.40;;;16.60;64.30;;;;;;5003669;28;20300;-75
2021/05/28 11:17:31;;;;;;;5.43;1.83;;;16.90;62.30;;;;;;5004433;28;20485;-75
2021/05/28 11:20:05;;;;;;;8.40;1.98;;;16.90;62.70;;;;;;5022682;28;20057;-75
2021/05/28 11:22:38;;;;;;;2.67;1.80;;;17.10;63.80;;;;;;5001671;28;20164;-75
2021/05/28 11:25:08;;;;;;;;;;;17.20;62.90;;;;;;5004535;28;20060;-74
2021/05/28 11:27:35;;;;;;;4.43;2.08;;;17.10;63.10;;;;;;5002622;28;19972;-75
2021/05/28 11:30:02;;;;;;;5.70;2.15;;;17.30;62.80;;;;;;5023264;28;20402;-75
2021/05/28 11:32:44;;;;;;;3.92;1.83;;;17.30;62.60;;;;;;5001973;28;20068;-74
2021/05/28 11:35:36;;;;;;;4.45;2.30;;;17.40;62.40;;;;;;5002511;28;20180;-75
2021/05/28 11:38:05;;;;;;;4.07;1.55;;;17.90;61.90;;;;;;5024855;28;20868;-75
2021/05/28 11:40:43;;;;;;;3.33;1.60;;;18.20;60.30;;;;;;5001718;28;20061;-74
2021/05/28 11:43:20;;;;;;;6.20;2.30;;;17.90;60.60;;;;;;5003759;28;20120;-76
2021/05/28 11:45:55;;;;;;;6.45;1.70;;;18.10;60.50;;;;;;5025531;28;20057;-75
2021/05/28 11:48:24;;;;;;;3.50;1.40;;;18.00;60.60;;;;;;5002156;28;20141;-75
2021/05/28 11:51:04;;;;;;;5.75;2.70;;;18.40;59.90;;;;;;5003712;28;20087;-75
2021/05/28 11:53:33;;;;;;;5.93;2.47;;;18.50;59.00;;;;;;5004025;28;20050;-75
2021/05/28 11:56:02;;;;;;;6.15;1.75;;;19.00;58.30;;;;;;5003500;28;20172;-74
2021/05/28 11:58:32;;;;;;;3.80;1.30;;;19.30;57.00;;;;;;5003597;28;20526;-78
2021/05/28 12:01:02;;;;;;;3.08;1.23;;;18.90;55.10;;;;;;5002505;28;20372;-76
2021/05/28 12:03:29;;;;;;;3.33;1.30;;;18.60;53.70;;;;;;5001955;28;20077;-75
2021/05/28 12:05:57;;;;;;;8.68;1.50;;;18.40;55.00;;;;;;5023809;28;20058;-75
2021/05/28 12:08:29;;;;;;;5.68;1.90;;;18.40;56.00;;;;;;5030540;28;20137;-75
2021/05/28 12:11:03;;;;;;;3.45;1.73;;;18.30;56.90;;;;;;5002676;28;20160;-76
2021/05/28 12:13:32;;;;;;;3.13;1.60;;;19.10;56.30;;;;;;5003291;28;20180;-76
2021/05/28 12:16:00;;;;;;;3.92;1.50;;;18.90;56.90;;;;;;5003131;28;20049;-75
2021/05/28 12:18:33;;;;;;;2.88;1.80;;;18.80;56.70;;;;;;5002737;28;20519;-74
2021/05/28 12:21:12;;;;;;;7.07;1.70;;;19.20;56.90;;;;;;5000831;28;20069;-75
2021/05/28 12:23:53;;;;;;;5.22;1.70;;;19.50;54.30;;;;;;5002030;28;20131;-74
2021/05/28 12:26:29;;;;;;;2.85;1.50;;;20.10;54.10;;;;;;5004509;28;20081;-73
2021/05/28 12:29:01;;;;;;;3.75;1.30;;;23.00;51.60;;;;;;5003027;28;20054;-74
2021/05/28 12:31:29;;;;;;;1.85;1.10;;;24.90;45.50;;;;;;5001233;28;20140;-74
2021/05/28 12:33:58;;;;;;;2.30;1.20;;;25.20;43.10;;;;;;5002305;28;20160;-74
2021/05/28 12:36:32;;;;;;;2.90;1.10;;;22.10;43.80;;;;;;5002406;28;20132;-75
2021/05/28 12:39:05;;;;;;;2.20;1.20;;;21.20;44.50;;;;;;5000991;28;20378;-74
2021/05/28 12:41:34;;;;;;;4.18;1.48;;;20.90;46.80;;;;;;5003517;28;20089;-77
2021/05/28 12:44:04;;;;;;;5.13;1.48;;;20.20;49.10;;;;;;5000570;28;20132;-75
2021/05/28 12:46:33;;;;;;;1.73;1.30;;;19.70;49.60;;;;;;4999317;28;20050;-76
2021/05/28 12:49:04;;;;;;;3.08;1.30;;;19.40;49.90;;;;;;5003388;28;20285;-76
2021/05/28 12:51:40;;;;;;;3.08;1.20;;;19.70;51.30;;;;;;5003406;28;20137;-75
2021/05/28 12:54:22;;;;;;;2.80;1.27;;;19.80;49.60;;;;;;5001645;28;20050;-75